Time;durP1;ratioP1;P1;durP2;ratioP2;P2;SDS_P1;SDS_P2;PMS_P1;PMS_P2;Temp;Humidity;BMP_temperature;BMP_pressure;BME280_temperature;BME280_humidity;BME280_pressure;Samples;Min_cycle;Max_cycle;Signal;HPM_P1;HPM_P2
2022/02/22 00:01:55;;;;;;;5.03;2.58;;;;;;;;;;1755685;80;21445;-74
2022/02/22 00:04:21;;;;;;;4.90;2.85;;;;;;;;;;1758596;80;20950;-75
2022/02/22 00:06:47;;;;;;;6.20;3.72;;;;;;;;;;1749942;81;21008;-74
2022/02/22 00:09:13;;;;;;;6.08;3.22;;;;;;;;;;1748543;81;20965;-75
2022/02/22 00:11:39;;;;;;;7.97;4.05;;;;;;;;;;1747906;81;21158;-74
2022/02/22 00:14:05;;;;;;;10.13;4.97;;;;;;;;;;1744426;81;20957;-75
2022/02/22 00:16:33;;;;;;;9.15;4.45;;;;;;;;;;1748564;81;20989;-75
2022/02/22 00:18:58;;;;;;;11.15;4.50;;;;;;;;;;1743520;81;21287;-75
2022/02/22 00:21:24;;;;;;;13.13;6.08;;;;;;;;;;1744621;82;20996;-75
2022/02/22 00:23:50;;;;;;;12.58;5.08;;;;;;;;;;1748400;81;20969;-75
2022/02/22 00:26:16;;;;;;;16.30;5.75;;;;;;;;;;1748142;82;21080;-75
2022/02/22 00:28:42;;;;;;;21.65;9.63;;;;;;;;;;1746894;81;21008;-75
2022/02/22 00:31:08;;;;;;;19.82;8.78;;;;;;;;;;1746537;81;21024;-73
2022/02/22 00:33:34;;;;;;;15.93;6.22;;;;;;;;;;1748254;81;21676;-74
2022/02/22 00:36:00;;;;;;;13.32;6.22;;;;;;;;;;1730981;82;20976;-74
2022/02/22 00:38:27;;;;;;;10.45;4.42;;;;;;;;;;1745983;81;21025;-74
2022/02/22 00:40:52;;;;;;;9.88;4.42;;;;;;;;;;1747182;81;21009;-74
2022/02/22 00:43:18;;;;;;;6.20;3.72;;;;;;;;;;1747005;81;21583;-74
2022/02/22 00:45:44;;;;;;;6.50;3.60;;;;;;;;;;1746090;82;21008;-75
2022/02/22 00:48:10;;;;;;;5.67;2.98;;;;;;;;;;1747925;82;21009;-74
2022/02/22 00:50:38;;;;;;;6.28;3.30;;;;;;;;;;1747620;81;21056;-74
2022/02/22 00:53:04;;;;;;;6.50;3.92;;;;;;;;;;1712168;83;21614;-74
2022/02/22 00:55:32;;;;;;;6.40;3.30;;;;;;;;;;1747720;81;21012;-74
2022/02/22 00:57:58;;;;;;;4.83;2.83;;;;;;;;;;1748411;81;21477;-74
2022/02/22 01:00:24;;;;;;;5.47;2.90;;;;;;;;;;1747166;81;21069;-74
2022/02/22 01:02:52;;;;;;;7.35;4.28;;;;;;;;;;1740553;81;21081;-74
2022/02/22 01:05:18;;;;;;;5.28;2.72;;;;;;;;;;1743036;81;21058;-74
2022/02/22 01:07:44;;;;;;;5.30;2.67;;;;;;;;;;1726804;82;21029;-73
2022/02/22 01:10:10;;;;;;;6.72;3.17;;;;;;;;;;1712956;83;20990;-74
2022/02/22 01:12:37;;;;;;;5.53;3.52;;;;;;;;;;1690757;84;21006;-74
2022/02/22 01:15:03;;;;;;;6.70;3.17;;;;;;;;;;1669775;85;21562;-73
2022/02/22 01:17:30;;;;;;;5.95;3.50;;;;;;;;;;1675472;85;21033;-73
2022/02/22 01:19:56;;;;;;;7.90;4.75;;;;;;;;;;1712654;82;21014;-74
2022/02/22 01:22:22;;;;;;;5.12;3.00;;;;;;;;;;1718518;83;21028;-74
2022/02/22 01:24:48;;;;;;;4.90;2.83;;;;;;;;;;1720655;82;21316;-74
2022/02/22 01:27:14;;;;;;;6.55;3.08;;;;;;;;;;1715308;82;20966;-74
2022/02/22 01:29:40;;;;;;;6.47;3.10;;;;;;;;;;1721101;82;21012;-73
2022/02/22 01:32:06;;;;;;;5.85;3.30;;;;;;;;;;1717434;83;20996;-73
2022/02/22 01:34:32;;;;;;;7.22;4.15;;;;;;;;;;1715489;82;21570;-73
2022/02/22 01:36:58;;;;;;;4.42;2.77;;;;;;;;;;1721922;82;20972;-73
2022/02/22 01:39:24;;;;;;;5.72;3.08;;;;;;;;;;1719126;82;21002;-73
2022/02/22 01:41:50;;;;;;;6.72;3.10;;;;;;;;;;1715068;82;21330;-73
2022/02/22 01:44:16;;;;;;;9.65;5.10;;;;;;;;;;1719763;82;21472;-73
2022/02/22 01:46:44;;;;;;;10.95;5.40;;;;;;;;;;1705998;82;21038;-74
2022/02/22 01:49:10;;;;;;;13.90;5.67;;;;;;;;;;1715564;82;21618;-74
2022/02/22 01:51:40;;;;;;;17.52;8.13;;;;;;;;;;1718506;83;21012;-74
2022/02/22 01:54:04;;;;;;;13.70;5.78;;;;;;;;;;1713531;82;21539;-74
2022/02/22 01:56:30;;;;;;;12.15;6.42;;;;;;;;;;1718794;82;21587;-74
2022/02/22 01:58:55;;;;;;;16.42;4.80;;;;;;;;;;1717503;81;21055;-74
2022/02/22 02:04:10;;;;;;;10.13;5.20;;;;;;;;;;1754068;79;73914;-70
2022/02/22 02:06:37;;;;;;;9.98;4.62;;;;;;;;;;1781707;80;20981;-69
2022/02/22 02:09:05;;;;;;;5.22;3.33;;;;;;;;;;1778926;80;20995;-70
2022/02/22 02:11:36;;;;;;;6.70;4.15;;;;;;;;;;1790552;78;20995;-69
2022/02/22 02:14:02;;;;;;;7.30;4.95;;;;;;;;;;1780703;80;21057;-69
2022/02/22 02:16:28;;;;;;;7.50;4.47;;;;;;;;;;1780359;79;20984;-71
2022/02/22 02:18:55;;;;;;;8.50;4.72;;;;;;;;;;1785628;79;20994;-70
2022/02/22 02:21:21;;;;;;;8.78;4.53;;;;;;;;;;1789956;78;20953;-70
2022/02/22 02:23:47;;;;;;;8.53;4.65;;;;;;;;;;1786457;80;21008;-70
2022/02/22 02:26:13;;;;;;;8.05;4.90;;;;;;;;;;1791288;80;20927;-69
2022/02/22 02:28:39;;;;;;;7.85;3.95;;;;;;;;;;1790364;79;20972;-69
2022/02/22 02:31:05;;;;;;;7.55;5.05;;;;;;;;;;1789875;80;20955;-70
2022/02/22 02:33:30;;;;;;;9.50;5.33;;;;;;;;;;1794682;79;21493;-69
2022/02/22 02:35:56;;;;;;;7.78;4.10;;;;;;;;;;1785796;79;20998;-70
2022/02/22 02:38:22;;;;;;;8.70;5.03;;;;;;;;;;1795288;79;20956;-69
2022/02/22 02:40:48;;;;;;;9.58;5.42;;;;;;;;;;1782879;80;21531;-70
2022/02/22 02:43:14;;;;;;;7.62;5.00;;;;;;;;;;1787444;80;20968;-69
2022/02/22 02:45:40;;;;;;;8.95;5.17;;;;;;;;;;1784931;80;20962;-69
2022/02/22 02:48:07;;;;;;;9.85;4.75;;;;;;;;;;1789905;80;21485;-69
2022/02/22 02:50:35;;;;;;;9.68;6.10;;;;;;;;;;1784920;80;21020;-69
2022/02/22 02:53:01;;;;;;;8.75;5.50;;;;;;;;;;1787621;80;20983;-69
2022/02/22 02:55:27;;;;;;;7.40;4.75;;;;;;;;;;1787829;79;20978;-69
2022/02/22 02:57:53;;;;;;;9.28;5.20;;;;;;;;;;1793228;80;21028;-69
2022/02/22 03:00:19;;;;;;;7.50;4.65;;;;;;;;;;1785938;80;21158;-69
2022/02/22 03:02:45;;;;;;;10.43;5.72;;;;;;;;;;1783767;80;20998;-70
2022/02/22 03:05:11;;;;;;;9.20;5.80;;;;;;;;;;1789973;78;21083;-70
2022/02/22 03:07:37;;;;;;;9.28;5.62;;;;;;;;;;1812332;79;20966;-70
2022/02/22 03:10:03;;;;;;;9.30;5.30;;;;;;;;;;1801454;78;21051;-70
2022/02/22 03:12:31;;;;;;;7.80;4.95;;;;;;;;;;1804568;79;21564;-70
2022/02/22 03:14:57;;;;;;;10.75;6.08;;;;;;;;;;1803487;78;21504;-70
2022/02/22 03:17:22;;;;;;;9.70;5.22;;;;;;;;;;1789689;78;21101;-69
2022/02/22 03:19:49;;;;;;;9.63;5.72;;;;;;;;;;1789764;78;21059;-70
2022/02/22 03:22:15;;;;;;;14.50;7.78;;;;;;;;;;1793709;79;20974;-71
2022/02/22 03:24:42;;;;;;;14.28;6.72;;;;;;;;;;1809770;78;20958;-70
2022/02/22 03:27:07;;;;;;;16.30;7.05;;;;;;;;;;1799275;79;20969;-71
2022/02/22 03:29:33;;;;;;;21.40;10.55;;;;;;;;;;1790378;78;21013;-71
2022/02/22 03:31:59;;;;;;;19.17;9.33;;;;;;;;;;1788191;79;20960;-70
2022/02/22 03:34:25;;;;;;;12.82;7.03;;;;;;;;;;1800661;79;20993;-70
2022/02/22 03:36:51;;;;;;;14.18;8.28;;;;;;;;;;1800376;79;21068;-70
2022/02/22 03:39:17;;;;;;;14.58;7.05;;;;;;;;;;1798621;78;21024;-70
2022/02/22 03:41:43;;;;;;;13.65;7.10;;;;;;;;;;1795001;78;20973;-70
2022/02/22 03:44:09;;;;;;;9.85;5.40;;;;;;;;;;1799283;79;20991;-70
2022/02/22 03:46:35;;;;;;;12.03;6.75;;;;;;;;;;1792991;79;20992;-71
2022/02/22 03:49:03;;;;;;;7.78;4.50;;;;;;;;;;1808228;79;21006;-69
2022/02/22 03:51:28;;;;;;;7.50;4.10;;;;;;;;;;1792065;79;20950;-69
2022/02/22 03:53:56;;;;;;;8.25;5.37;;;;;;;;;;1806616;78;20981;-69
2022/02/22 03:56:22;;;;;;;8.23;3.90;;;;;;;;;;1798696;78;21523;-69
2022/02/22 03:58:48;;;;;;;7.72;4.20;;;;;;;;;;1804963;78;20990;-70
2022/02/22 04:01:16;;;;;;;6.83;4.30;;;;;;;;;;1791431;78;21023;-69
2022/02/22 04:03:42;;;;;;;10.85;6.10;;;;;;;;;;1806150;79;21028;-70
2022/02/22 04:06:08;;;;;;;11.85;6.45;;;;;;;;;;1800226;78;20982;-70
2022/02/22 04:08:34;;;;;;;9.35;4.53;;;;;;;;;;1804069;78;21013;-69
2022/02/22 04:11:00;;;;;;;9.43;5.37;;;;;;;;;;1799911;78;21020;-68
2022/02/22 04:13:26;;;;;;;9.45;4.72;;;;;;;;;;1798412;79;21060;-70
2022/02/22 04:15:52;;;;;;;7.67;4.47;;;;;;;;;;1800687;78;21043;-70
2022/02/22 04:18:18;;;;;;;9.93;5.78;;;;;;;;;;1799910;79;20992;-69
2022/02/22 04:20:45;;;;;;;7.25;4.55;;;;;;;;;;1799931;78;20992;-70
2022/02/22 04:23:11;;;;;;;10.55;4.95;;;;;;;;;;1801997;78;21048;-70
2022/02/22 04:25:37;;;;;;;10.75;5.03;;;;;;;;;;1764856;80;21065;-70
2022/02/22 04:28:03;;;;;;;9.90;4.78;;;;;;;;;;1756418;81;21024;-70
2022/02/22 04:30:30;;;;;;;11.70;6.10;;;;;;;;;;1751696;80;21060;-70
2022/02/22 04:32:55;;;;;;;9.85;6.05;;;;;;;;;;1754902;81;21043;-70
2022/02/22 04:35:22;;;;;;;11.78;5.08;;;;;;;;;;1760796;81;21076;-70
2022/02/22 04:37:48;;;;;;;10.80;6.15;;;;;;;;;;1784937;79;20960;-70
2022/02/22 04:40:14;;;;;;;12.37;5.70;;;;;;;;;;1784034;79;21034;-70
2022/02/22 04:42:41;;;;;;;11.90;5.75;;;;;;;;;;1791851;79;20984;-70
2022/02/22 04:45:08;;;;;;;11.80;6.55;;;;;;;;;;1810844;79;21623;-70
2022/02/22 04:47:34;;;;;;;10.80;5.62;;;;;;;;;;1807729;79;21028;-70
2022/02/22 04:50:00;;;;;;;8.73;4.75;;;;;;;;;;1797025;79;21600;-70
2022/02/22 04:52:26;;;;;;;12.18;7.42;;;;;;;;;;1795539;78;21452;-69
2022/02/22 04:54:52;;;;;;;11.93;5.58;;;;;;;;;;1794549;78;21039;-70
2022/02/22 04:57:18;;;;;;;11.65;5.85;;;;;;;;;;1804821;78;21027;-70
2022/02/22 04:59:46;;;;;;;12.50;6.33;;;;;;;;;;1809563;79;21013;-70
2022/02/22 05:02:12;;;;;;;17.45;8.55;;;;;;;;;;1797560;79;21036;-71
2022/02/22 05:04:38;;;;;;;17.52;7.95;;;;;;;;;;1795464;79;21575;-70
2022/02/22 05:07:04;;;;;;;17.05;7.70;;;;;;;;;;1791719;78;21041;-70
2022/02/22 05:09:30;;;;;;;18.75;9.23;;;;;;;;;;1796497;78;21028;-70
2022/02/22 05:11:56;;;;;;;23.57;10.72;;;;;;;;;;1799994;78;21453;-70
2022/02/22 05:14:22;;;;;;;22.77;10.13;;;;;;;;;;1803379;79;20991;-70
2022/02/22 05:16:48;;;;;;;23.40;10.80;;;;;;;;;;1794280;78;21042;-69
2022/02/22 05:19:14;;;;;;;24.15;10.53;;;;;;;;;;1804101;79;20988;-69
2022/02/22 05:21:41;;;;;;;18.15;8.23;;;;;;;;;;1796137;79;21297;-69
2022/02/22 05:24:07;;;;;;;18.82;9.33;;;;;;;;;;1791192;79;20988;-70
2022/02/22 05:26:33;;;;;;;17.05;8.40;;;;;;;;;;1790156;78;21573;-70
2022/02/22 05:28:59;;;;;;;17.73;8.13;;;;;;;;;;1791117;79;21094;-70
2022/02/22 05:31:25;;;;;;;15.05;7.37;;;;;;;;;;1794285;78;20988;-70
2022/02/22 05:33:52;;;;;;;15.05;7.65;;;;;;;;;;1786777;78;21059;-70
2022/02/22 05:36:21;;;;;;;22.15;11.25;;;;;;;;;;1792146;78;21045;-71
2022/02/22 05:38:47;;;;;;;32.15;17.42;;;;;;;;;;1786952;79;21451;-72
2022/02/22 05:41:17;;;;;;;35.92;16.17;;;;;;;;;;1791153;78;20993;-72
2022/02/22 05:43:42;;;;;;;35.17;15.23;;;;;;;;;;1797630;79;21076;-72
2022/02/22 05:46:09;;;;;;;22.60;9.60;;;;;;;;;;1786331;78;21059;-70
2022/02/22 05:48:35;;;;;;;19.37;8.75;;;;;;;;;;1796068;78;20958;-70
2022/02/22 05:51:01;;;;;;;15.00;7.67;;;;;;;;;;1794221;79;21547;-71
2022/02/22 05:53:27;;;;;;;11.15;5.75;;;;;;;;;;1792413;79;21598;-71
2022/02/22 05:55:53;;;;;;;11.05;6.47;;;;;;;;;;1785652;78;21016;-71
2022/02/22 05:58:19;;;;;;;9.58;5.78;;;;;;;;;;1786513;78;21018;-73
2022/02/22 06:00:45;;;;;;;7.47;4.50;;;;;;;;;;1784315;78;20964;-70
2022/02/22 06:03:12;;;;;;;9.45;5.40;;;;;;;;;;1786484;78;21550;-70
2022/02/22 06:05:38;;;;;;;10.05;5.00;;;;;;;;;;1795798;78;21001;-72
2022/02/22 06:08:04;;;;;;;10.43;4.60;;;;;;;;;;1797890;78;21028;-71
2022/02/22 06:10:30;;;;;;;9.00;4.37;;;;;;;;;;1804409;79;21057;-71
2022/02/22 06:12:56;;;;;;;7.60;5.08;;;;;;;;;;1801935;78;21559;-71
2022/02/22 06:15:22;;;;;;;10.30;4.50;;;;;;;;;;1793803;78;20988;-71
2022/02/22 06:17:50;;;;;;;11.95;6.17;;;;;;;;;;1793436;79;20978;-72
2022/02/22 06:20:16;;;;;;;21.30;11.25;;;;;;;;;;1795139;78;21460;-71
2022/02/22 06:22:42;;;;;;;19.45;9.00;;;;;;;;;;1790806;78;21032;-72
2022/02/22 06:25:09;;;;;;;14.93;8.03;;;;;;;;;;1795459;78;20961;-72
2022/02/22 06:27:48;;;;;;;15.30;10.20;;;;;;;;;;1802057;79;20963;-71
2022/02/22 06:30:13;;;;;;;16.52;8.58;;;;;;;;;;1794521;78;20976;-71
2022/02/22 06:32:39;;;;;;;15.03;6.03;;;;;;;;;;1806586;78;20976;-71
2022/02/22 06:35:05;;;;;;;9.25;4.53;;;;;;;;;;1786505;78;21009;-71
2022/02/22 06:37:33;;;;;;;9.23;4.00;;;;;;;;;;1796866;78;21530;-71
2022/02/22 06:39:59;;;;;;;10.50;4.70;;;;;;;;;;1784092;78;20969;-72
2022/02/22 06:42:25;;;;;;;10.63;6.25;;;;;;;;;;1803521;78;21012;-71
2022/02/22 06:44:51;;;;;;;7.83;4.75;;;;;;;;;;1801512;78;21080;-71
2022/02/22 06:47:16;;;;;;;8.73;4.78;;;;;;;;;;1805791;78;20957;-71
2022/02/22 06:49:42;;;;;;;10.03;5.25;;;;;;;;;;1795506;78;21008;-72
2022/02/22 06:52:08;;;;;;;10.25;5.10;;;;;;;;;;1794910;78;21068;-72
2022/02/22 06:54:35;;;;;;;8.68;4.70;;;;;;;;;;1801072;78;21047;-71
2022/02/22 06:57:00;;;;;;;9.98;5.65;;;;;;;;;;1790579;78;21016;-73
2022/02/22 06:59:26;;;;;;;7.67;4.33;;;;;;;;;;1807073;78;20965;-72
2022/02/22 07:01:52;;;;;;;7.80;4.87;;;;;;;;;;1789407;78;21632;-70
2022/02/22 07:04:18;;;;;;;10.93;4.08;;;;;;;;;;1794277;78;21040;-68
2022/02/22 07:06:44;;;;;;;7.28;4.20;;;;;;;;;;1792326;78;21020;-69
2022/02/22 07:09:10;;;;;;;7.60;4.92;;;;;;;;;;1800877;79;21024;-69
2022/02/22 07:11:37;;;;;;;8.53;4.87;;;;;;;;;;1798758;78;20961;-70
2022/02/22 07:14:02;;;;;;;10.28;4.37;;;;;;;;;;1798674;78;20996;-67
2022/02/22 07:16:29;;;;;;;7.05;4.17;;;;;;;;;;1797445;78;21038;-67
2022/02/22 07:18:54;;;;;;;8.65;3.83;;;;;;;;;;1798624;78;20988;-69
2022/02/22 07:21:20;;;;;;;10.38;5.60;;;;;;;;;;1813408;78;22066;-68
2022/02/22 07:23:46;;;;;;;8.83;4.70;;;;;;;;;;1801891;78;21043;-70
2022/02/22 07:26:13;;;;;;;8.33;4.92;;;;;;;;;;1802862;78;21016;-69
2022/02/22 07:28:38;;;;;;;5.33;3.52;;;;;;;;;;1813308;79;20992;-68
2022/02/22 07:31:06;;;;;;;7.50;4.42;;;;;;;;;;1798391;79;21040;-68
2022/02/22 07:33:33;;;;;;;7.95;3.92;;;;;;;;;;1791531;78;20952;-68
2022/02/22 07:35:59;;;;;;;8.50;4.03;;;;;;;;;;1775583;78;21043;-68
2022/02/22 07:38:25;;;;;;;8.83;4.03;;;;;;;;;;1785412;80;21487;-69
2022/02/22 07:40:52;;;;;;;7.92;4.08;;;;;;;;;;1797568;80;21080;-68
2022/02/22 07:43:17;;;;;;;7.60;4.60;;;;;;;;;;1797474;78;20976;-69
2022/02/22 07:45:43;;;;;;;5.97;3.90;;;;;;;;;;1783887;79;20969;-70
2022/02/22 07:48:09;;;;;;;8.73;4.75;;;;;;;;;;1791526;79;22171;-69
2022/02/22 07:50:38;;;;;;;8.60;4.95;;;;;;;;;;1806141;78;20913;-68
2022/02/22 07:53:03;;;;;;;9.55;3.98;;;;;;;;;;1797381;79;21040;-69
2022/02/22 07:55:29;;;;;;;9.28;4.17;;;;;;;;;;1798754;79;20981;-64
2022/02/22 07:57:56;;;;;;;8.08;3.90;;;;;;;;;;1785373;79;21028;-67
2022/02/22 08:00:22;;;;;;;6.83;3.92;;;;;;;;;;1785491;79;21036;-68
2022/02/22 08:02:48;;;;;;;7.47;3.60;;;;;;;;;;1791670;78;21048;-67
2022/02/22 08:05:14;;;;;;;7.22;3.12;;;;;;;;;;1787753;78;21627;-68
2022/02/22 08:07:41;;;;;;;9.00;4.08;;;;;;;;;;1789275;78;20982;-67
2022/02/22 08:10:07;;;;;;;8.53;3.30;;;;;;;;;;1799791;78;21575;-68
2022/02/22 08:12:34;;;;;;;6.28;2.92;;;;;;;;;;1804980;78;20945;-67
2022/02/22 08:15:01;;;;;;;4.03;2.17;;;;;;;;;;1800525;79;21056;-68
2022/02/22 08:17:27;;;;;;;3.67;2.30;;;;;;;;;;1809762;78;21004;-67
2022/02/22 08:19:52;;;;;;;4.50;2.40;;;;;;;;;;1807538;79;21571;-68
2022/02/22 08:22:18;;;;;;;7.25;2.90;;;;;;;;;;1808775;79;21027;-67
2022/02/22 08:24:45;;;;;;;3.15;2.05;;;;;;;;;;1811432;79;21021;-66
2022/02/22 08:27:12;;;;;;;4.03;2.40;;;;;;;;;;1800827;79;21481;-67
2022/02/22 08:29:38;;;;;;;3.75;2.22;;;;;;;;;;1798243;79;20964;-66
2022/02/22 08:32:04;;;;;;;7.42;2.80;;;;;;;;;;1793981;78;21032;-67
2022/02/22 08:34:30;;;;;;;5.53;3.60;;;;;;;;;;1805628;79;20974;-67
2022/02/22 08:36:56;;;;;;;8.38;4.40;;;;;;;;;;1795055;78;21003;-67
2022/02/22 08:39:24;;;;;;;15.95;6.87;;;;;;;;;;1790855;78;20981;-68
2022/02/22 08:41:50;;;;;;;8.33;4.40;;;;;;;;;;1802382;78;22082;-65
2022/02/22 08:44:17;;;;;;;4.37;2.85;;;;;;;;;;1803986;78;21579;-64
2022/02/22 08:46:42;;;;;;;5.60;2.83;;;;;;;;;;1806098;78;20985;-65
2022/02/22 08:49:09;;;;;;;4.92;2.77;;;;;;;;;;1799235;78;21040;-68
2022/02/22 08:51:35;;;;;;;4.17;2.37;;;;;;;;;;1799383;78;21598;-68
2022/02/22 08:54:02;;;;;;;4.53;2.80;;;;;;;;;;1784408;78;20992;-69
2022/02/22 08:56:29;;;;;;;4.45;2.30;;;;;;;;;;1789503;78;21043;-68
2022/02/22 08:58:54;;;;;;;4.53;2.15;;;;;;;;;;1787278;78;21582;-69
2022/02/22 09:01:20;;;;;;;5.55;2.47;;;;;;;;;;1790324;78;20976;-69
2022/02/22 09:03:47;;;;;;;3.00;1.70;;;;;;;;;;1794726;78;21056;-66
2022/02/22 09:06:13;;;;;;;4.22;2.47;;;;;;;;;;1804161;78;20980;-66
2022/02/22 09:08:40;;;;;;;3.08;2.02;;;;;;;;;;1802618;78;21022;-66
2022/02/22 09:11:06;;;;;;;5.90;2.45;;;;;;;;;;1699594;78;22185;-69
2022/02/22 09:13:32;;;;;;;5.12;2.08;;;;;;;;;;1768646;80;21150;-66
2022/02/22 09:15:59;;;;;;;3.15;1.98;;;;;;;;;;1734586;81;21009;-67
2022/02/22 09:18:25;;;;;;;4.80;2.17;;;;;;;;;;1707781;83;21051;-67
2022/02/22 09:20:51;;;;;;;3.72;1.98;;;;;;;;;;1699988;83;21043;-68
2022/02/22 09:23:17;;;;;;;4.28;2.22;;;;;;;;;;1705400;83;21049;-68
2022/02/22 09:25:43;;;;;;;3.55;2.25;;;;;;;;;;1735998;81;21629;-66
2022/02/22 09:28:09;;;;;;;5.85;2.50;;;;;;;;;;1727569;83;21080;-72
2022/02/22 09:30:36;;;;;;;4.33;2.10;;;;;;;;;;1741546;81;21096;-67
2022/02/22 09:33:03;;;;;;;4.12;2.40;;;;;;;;;;1747689;81;21032;-68
2022/02/22 09:35:30;;;;;;;5.40;2.67;;;;;;;;;;1737895;81;21487;-68
2022/02/22 09:37:56;;;;;;;3.35;2.12;;;;;;;;;;1758396;80;21002;-66
2022/02/22 09:40:22;;;;;;;4.85;2.12;;;;;;;;;;1763034;81;20977;-67
2022/02/22 09:42:48;;;;;;;6.58;2.35;;;;;;;;;;1749298;80;21251;-66
2022/02/22 09:45:15;;;;;;;5.95;2.52;;;;;;;;;;1753851;80;20997;-67
2022/02/22 09:47:41;;;;;;;2.77;1.87;;;;;;;;;;1745717;81;21072;-67
2022/02/22 09:50:08;;;;;;;3.35;1.87;;;;;;;;;;1756340;81;21017;-68
2022/02/22 09:52:35;;;;;;;3.33;2.05;;;;;;;;;;1748562;80;21095;-67
2022/02/22 09:55:02;;;;;;;5.15;2.42;;;;;;;;;;1755306;81;21021;-67
2022/02/22 09:57:28;;;;;;;5.37;2.95;;;;;;;;;;1739278;81;21025;-68
2022/02/22 09:59:54;;;;;;;4.03;1.85;;;;;;;;;;1718722;83;21025;-67
2022/02/22 10:02:20;;;;;;;5.65;2.75;;;;;;;;;;1738280;81;21052;-68
2022/02/22 10:04:47;;;;;;;4.80;2.27;;;;;;;;;;1743315;81;21098;-68
2022/02/22 10:07:13;;;;;;;4.42;2.00;;;;;;;;;;1746731;81;20992;-68
2022/02/22 10:09:55;;;;;;;3.98;2.27;;;;;;;;;;1764462;81;21062;-68
2022/02/22 10:12:28;;;;;;;4.97;1.90;;;;;;;;;;1757381;80;21046;-67
2022/02/22 10:14:54;;;;;;;3.47;1.80;;;;;;;;;;1771152;80;21000;-67
2022/02/22 10:17:21;;;;;;;4.60;2.77;;;;;;;;;;1769344;80;21057;-69
2022/02/22 10:19:48;;;;;;;3.83;2.30;;;;;;;;;;1744685;82;20986;-68
2022/02/22 10:24:09;;;;;;;3.98;1.87;;;;;;;;;;1815341;79;22833;-68
2022/02/22 10:26:35;;;;;;;3.75;2.00;;;;;;;;;;1780905;80;20998;-68
2022/02/22 10:29:02;;;;;;;4.60;2.45;;;;;;;;;;1783859;80;21077;-67
2022/02/22 10:31:29;;;;;;;5.15;1.85;;;;;;;;;;1779007;80;20985;-68
2022/02/22 10:33:55;;;;;;;4.50;1.92;;;;;;;;;;1783357;80;21013;-69
2022/02/22 10:36:21;;;;;;;2.85;1.92;;;;;;;;;;1780072;80;20993;-68
2022/02/22 10:38:47;;;;;;;5.62;2.40;;;;;;;;;;1784809;80;21280;-68
2022/02/22 10:41:15;;;;;;;4.78;2.00;;;;;;;;;;1784976;80;21567;-69
2022/02/22 10:43:42;;;;;;;2.58;1.40;;;;;;;;;;1783375;80;20979;-68
2022/02/22 10:46:10;;;;;;;3.45;1.70;;;;;;;;;;1784572;80;21481;-68
2022/02/22 10:51:18;;;;;;;4.28;2.10;;;;;;;;;;1753261;79;21117;-67
2022/02/22 10:53:45;;;;;;;3.72;1.90;;;;;;;;;;1745460;81;21007;-67
2022/02/22 10:56:12;;;;;;;3.35;1.80;;;;;;;;;;1746671;80;21020;-67
2022/02/22 10:58:40;;;;;;;2.85;1.77;;;;;;;;;;1748715;82;21005;-67
2022/02/22 11:01:09;;;;;;;5.25;2.12;;;;;;;;;;1750771;81;21071;-65
2022/02/22 11:03:35;;;;;;;2.77;1.80;;;;;;;;;;1749075;82;21603;-66
2022/02/22 11:06:01;;;;;;;3.90;1.77;;;;;;;;;;1748637;82;22127;-66
2022/02/22 11:08:28;;;;;;;3.87;2.45;;;;;;;;;;1741554;82;21027;-68
2022/02/22 11:10:55;;;;;;;3.58;2.10;;;;;;;;;;1745495;82;21033;-68
2022/02/22 11:13:25;;;;;;;4.90;2.80;;;;;;;;;;1744842;80;20963;-67
2022/02/22 11:15:51;;;;;;;4.95;2.20;;;;;;;;;;1740401;82;20990;-68
2022/02/22 11:18:19;;;;;;;3.20;2.10;;;;;;;;;;1741549;82;21554;-68
2022/02/22 11:20:44;;;;;;;3.10;1.67;;;;;;;;;;1738586;82;20952;-68
2022/02/22 11:23:12;;;;;;;4.05;2.40;;;;;;;;;;1711527;83;21018;-69
2022/02/22 11:25:38;;;;;;;1.95;1.60;;;;;;;;;;1708379;83;21033;-68
2022/02/22 11:28:05;;;;;;;3.70;2.02;;;;;;;;;;1745402;82;21040;-69
2022/02/22 11:30:31;;;;;;;4.40;2.00;;;;;;;;;;1741862;82;21016;-68
2022/02/22 11:32:58;;;;;;;3.80;2.20;;;;;;;;;;1746039;82;20989;-68
2022/02/22 11:35:24;;;;;;;3.37;2.22;;;;;;;;;;1745640;81;21007;-69
2022/02/22 11:37:51;;;;;;;4.80;2.30;;;;;;;;;;1740363;82;21061;-68
2022/02/22 11:40:24;;;;;;;4.30;2.15;;;;;;;;;;1741549;82;21083;-68
2022/02/22 11:42:50;;;;;;;2.67;1.65;;;;;;;;;;1752234;82;21036;-68
2022/02/22 11:45:19;;;;;;;3.17;1.80;;;;;;;;;;1742112;82;21018;-69
2022/02/22 11:47:45;;;;;;;4.55;2.25;;;;;;;;;;1745308;82;20987;-68
2022/02/22 11:50:12;;;;;;;5.10;2.50;;;;;;;;;;1741261;82;21520;-67
2022/02/22 11:52:39;;;;;;;4.67;2.15;;;;;;;;;;1731736;82;21051;-67
2022/02/22 11:55:10;;;;;;;4.53;2.50;;;;;;;;;;1701748;83;21034;-68
2022/02/22 11:57:49;;;;;;;5.42;2.45;;;;;;;;;;1726429;82;20987;-68
2022/02/22 12:00:15;;;;;;;3.30;1.90;;;;;;;;;;1724869;82;20985;-66
2022/02/22 12:02:45;;;;;;;3.47;2.10;;;;;;;;;;1725336;82;20987;-67
2022/02/22 12:05:30;;;;;;;4.05;2.40;;;;;;;;;;1686788;84;21054;-66
2022/02/22 12:08:04;;;;;;;16.17;2.70;;;;;;;;;;1643558;86;20940;-68
2022/02/22 12:10:31;;;;;;;4.12;1.90;;;;;;;;;;1644228;86;21088;-68
2022/02/22 12:13:02;;;;;;;5.53;2.27;;;;;;;;;;1650480;85;21071;-68
2022/02/22 12:15:32;;;;;;;4.35;2.00;;;;;;;;;;1660841;85;21042;-67
2022/02/22 12:17:58;;;;;;;4.87;2.00;;;;;;;;;;1669028;84;21552;-67
2022/02/22 12:20:27;;;;;;;3.58;1.90;;;;;;;;;;1667292;84;21038;-67
2022/02/22 12:22:53;;;;;;;5.53;2.37;;;;;;;;;;1667300;84;21030;-66
2022/02/22 12:25:21;;;;;;;3.77;2.15;;;;;;;;;;1731070;82;20984;-67
2022/02/22 12:27:47;;;;;;;5.80;2.65;;;;;;;;;;1727408;82;21095;-68
2022/02/22 12:33:03;;;;;;;5.65;2.55;;;;;;;;;;1711088;80;21207;-68
2022/02/22 12:35:31;;;;;;;8.53;3.35;;;;;;;;;;1678662;83;21338;-69
2022/02/22 12:37:57;;;;;;;3.58;2.10;;;;;;;;;;1674583;84;21051;-68
2022/02/22 12:40:25;;;;;;;3.42;2.20;;;;;;;;;;1683541;84;20986;-67
2022/02/22 12:42:52;;;;;;;4.55;2.17;;;;;;;;;;1727262;82;21026;-67
2022/02/22 12:45:18;;;;;;;5.58;2.10;;;;;;;;;;1694746;82;21117;-69
2022/02/22 12:47:45;;;;;;;4.67;2.10;;;;;;;;;;1716529;82;21021;-68
2022/02/22 12:50:11;;;;;;;3.62;2.50;;;;;;;;;;1716618;82;21044;-68
2022/02/22 12:52:37;;;;;;;3.77;2.10;;;;;;;;;;1730920;82;21061;-69
2022/02/22 12:57:43;;;;;;;4.97;2.83;;;;;;;;;;1803531;79;22949;-67
2022/02/22 13:00:10;;;;;;;4.30;2.35;;;;;;;;;;1760239;80;21033;-68
2022/02/22 13:02:36;;;;;;;5.08;2.70;;;;;;;;;;1762044;80;21036;-70
2022/02/22 13:05:01;;;;;;;5.42;3.05;;;;;;;;;;1765493;80;21006;-64
2022/02/22 13:07:29;;;;;;;4.53;2.50;;;;;;;;;;1766373;80;21004;-67
2022/02/22 13:10:05;;;;;;;3.95;2.12;;;;;;;;;;1767838;80;21012;-67
2022/02/22 13:12:31;;;;;;;7.65;2.27;;;;;;;;;;1757897;81;21004;-66
2022/02/22 13:15:00;;;;;;;7.90;3.58;;;;;;;;;;1759234;81;21046;-68
2022/02/22 13:17:26;;;;;;;5.08;3.02;;;;;;;;;;1760735;81;21069;-67
2022/02/22 13:19:52;;;;;;;6.20;2.83;;;;;;;;;;1763301;80;21024;-67
2022/02/22 13:22:29;;;;;;;6.50;3.22;;;;;;;;;;1764577;80;21045;-66
2022/02/22 13:25:00;;;;;;;4.58;2.70;;;;;;;;;;1769450;80;21547;-67
2022/02/22 13:27:28;;;;;;;7.35;2.60;;;;;;;;;;1760066;80;21556;-68
2022/02/22 13:29:57;;;;;;;5.53;2.70;;;;;;;;;;1762712;80;21527;-66
2022/02/22 13:32:30;;;;;;;7.20;3.35;;;;;;;;;;1759331;80;21055;-67
2022/02/22 13:34:56;;;;;;;5.45;3.33;;;;;;;;;;1755671;80;21538;-67
2022/02/22 13:37:23;;;;;;;7.47;2.55;;;;;;;;;;1752387;82;21518;-67
2022/02/22 13:40:03;;;;;;;5.47;2.08;;;;;;;;;;1758638;81;21471;-68
2022/02/22 13:42:29;;;;;;;6.22;2.30;;;;;;;;;;1753849;82;21479;-68
2022/02/22 13:44:59;;;;;;;4.37;2.35;;;;;;;;;;1756855;81;20984;-68
2022/02/22 13:47:31;;;;;;;6.12;2.42;;;;;;;;;;1756173;81;21040;-67
2022/02/22 13:49:57;;;;;;;8.00;3.20;;;;;;;;;;1756666;81;21015;-66
2022/02/22 13:52:23;;;;;;;5.55;2.87;;;;;;;;;;1752849;81;21597;-66
2022/02/22 13:54:49;;;;;;;5.10;2.85;;;;;;;;;;1758221;81;21067;-66
2022/02/22 13:57:15;;;;;;;5.53;2.70;;;;;;;;;;1746362;82;21491;-67
2022/02/22 13:59:42;;;;;;;5.87;2.58;;;;;;;;;;1750671;82;20981;-67
2022/02/22 14:02:09;;;;;;;3.90;2.20;;;;;;;;;;1750351;81;20980;-67
2022/02/22 14:04:35;;;;;;;4.55;2.33;;;;;;;;;;1745212;82;20988;-66
2022/02/22 14:07:03;;;;;;;6.35;2.70;;;;;;;;;;1754771;81;21015;-67
2022/02/22 14:09:30;;;;;;;6.22;2.45;;;;;;;;;;1751448;82;21052;-68
2022/02/22 14:11:56;;;;;;;6.28;2.33;;;;;;;;;;1751177;82;21032;-69
2022/02/22 14:14:22;;;;;;;3.62;2.12;;;;;;;;;;1751616;81;21055;-69
2022/02/22 14:16:48;;;;;;;5.92;2.60;;;;;;;;;;1749683;81;21032;-68
2022/02/22 14:19:15;;;;;;;3.65;2.02;;;;;;;;;;1748177;82;21086;-68
2022/02/22 14:21:41;;;;;;;5.12;3.25;;;;;;;;;;1746927;81;21022;-68
2022/02/22 14:24:08;;;;;;;5.35;2.80;;;;;;;;;;1753851;81;21018;-67
2022/02/22 14:26:33;;;;;;;4.58;2.67;;;;;;;;;;1750908;82;21004;-68
2022/02/22 14:29:00;;;;;;;5.20;3.00;;;;;;;;;;1751247;81;20981;-68
2022/02/22 14:31:26;;;;;;;3.50;2.35;;;;;;;;;;1738826;82;21126;-67
2022/02/22 14:33:52;;;;;;;5.15;2.60;;;;;;;;;;1747482;82;21036;-68
2022/02/22 14:36:19;;;;;;;4.45;2.55;;;;;;;;;;1749855;81;21153;-68
2022/02/22 14:38:45;;;;;;;4.25;2.30;;;;;;;;;;1743591;80;22452;-68
2022/02/22 14:41:11;;;;;;;6.65;3.47;;;;;;;;;;1749007;82;20972;-68
2022/02/22 14:43:37;;;;;;;4.08;2.60;;;;;;;;;;1751259;82;21787;-68
2022/02/22 14:46:03;;;;;;;4.92;2.58;;;;;;;;;;1751388;82;20976;-68
2022/02/22 14:48:30;;;;;;;5.70;2.58;;;;;;;;;;1724403;82;21016;-69